Time;durP1;ratioP1;P1;durP2;ratioP2;P2;SDS_P1;SDS_P2;PMS_P1;PMS_P2;Temp;Humidity;BMP_temperature;BMP_pressure;BME280_temperature;BME280_humidity;BME280_pressure;Samples;Min_cycle;Max_cycle;Signal;HPM_P1;HPM_P2
2022/05/08 10:31:20;;;;;;;2.95;2.40;;;;;;;;;;5124107;27;20714;-78
2022/05/08 10:38:01;;;;;;;8.35;3.13;;;;;;;;;;5135214;27;20425;-76
2022/05/08 10:40:27;;;;;;;8.32;3.55;;;;;;;;;;5106393;28;20036;-80
2022/05/08 10:42:55;;;;;;;3.65;2.40;;;;;;;;;;5105936;28;20067;-77
2022/05/08 10:45:32;;;;;;;6.13;3.45;;;;;;;;;;5105797;28;20095;-76
2022/05/08 10:48:07;;;;;;;9.93;3.72;;;;;;;;;;5105156;28;20016;-78
2022/05/08 10:50:32;;;;;;;10.07;3.40;;;;;;;;;;5105700;28;20015;-79
2022/05/08 10:52:58;;;;;;;3.42;2.65;;;;;;;;;;5104886;28;20026;-76
2022/05/08 10:55:24;;;;;;;3.85;2.13;;;;;;;;;;5103540;28;20036;-79
2022/05/08 10:57:51;;;;;;;3.65;2.55;;;;;;;;;;5095453;22;20060;-74
2022/05/08 11:00:20;;;;;;;5.57;2.50;;;;;;;;;;5084530;28;20021;-77
2022/05/08 11:02:51;;;;;;;2.95;1.98;;;;;;;;;;5084509;28;20025;-76
2022/05/08 11:05:20;;;;;;;5.93;2.15;;;;;;;;;;5083596;28;20034;-74
2022/05/08 11:07:55;;;;;;;3.47;2.00;;;;;;;;;;5085829;28;20021;-80
2022/05/08 11:10:31;;;;;;;16.02;9.18;;;;;;;;;;5085943;28;20021;-80
2022/05/08 11:12:59;;;;;;;2.55;2.35;;;;;;;;;;5084771;28;20471;-78
2022/05/08 11:15:32;;;;;;;2.97;2.38;;;;;;;;;;5079465;28;20024;-78
2022/05/08 11:18:24;;;;;;;2.95;2.35;;;;;;;;;;5085600;28;20502;-80
2022/05/08 11:21:02;;;;;;;9.93;6.75;;;;;;;;;;5084774;28;20376;-80
2022/05/08 11:23:29;;;;;;;2.97;2.42;;;;;;;;;;5083657;28;20497;-81
2022/05/08 11:25:55;;;;;;;6.15;2.42;;;;;;;;;;5085485;28;20013;-82
2022/05/08 11:28:24;;;;;;;2.83;2.08;;;;;;;;;;5085493;28;20032;-81
2022/05/08 11:30:53;;;;;;;3.72;2.88;;;;;;;;;;5082903;28;20031;-79
2022/05/08 11:36:04;;;;;;;3.25;2.30;;;;;;;;;;5085428;28;20031;-79
2022/05/08 11:38:41;;;;;;;6.13;2.10;;;;;;;;;;5085352;28;20448;-79
2022/05/08 11:41:17;;;;;;;3.47;1.98;;;;;;;;;;5083903;28;20380;-80
2022/05/08 11:43:47;;;;;;;5.38;2.08;;;;;;;;;;5085144;28;20020;-81
2022/05/08 11:46:16;;;;;;;3.15;2.38;;;;;;;;;;5085124;28;20078;-82
2022/05/08 11:48:42;;;;;;;3.50;2.50;;;;;;;;;;5075170;28;20020;-84
2022/05/08 11:51:09;;;;;;;2.90;2.60;;;;;;;;;;5070433;28;20020;-84
2022/05/08 11:53:38;;;;;;;3.45;2.63;;;;;;;;;;5071617;28;20027;-86
2022/05/08 11:56:24;;;;;;;7.07;2.20;;;;;;;;;;5070511;28;20071;-87
2022/05/08 11:58:50;;;;;;;2.33;2.10;;;;;;;;;;5071453;28;20473;-83
2022/05/08 12:01:22;;;;;;;7.03;2.20;;;;;;;;;;5071585;28;20077;-83
2022/05/08 12:03:47;;;;;;;2.63;2.15;;;;;;;;;;5071569;28;20109;-85
2022/05/08 12:06:13;;;;;;;3.25;2.42;;;;;;;;;;5071453;28;20482;-83
2022/05/08 12:08:38;;;;;;;2.25;2.05;;;;;;;;;;5071486;28;20058;-83
2022/05/08 12:11:03;;;;;;;3.72;2.40;;;;;;;;;;5071243;28;20066;-83
2022/05/08 12:13:34;;;;;;;3.28;2.15;;;;;;;;;;5053324;28;20119;-84
2022/05/08 12:15:59;;;;;;;;;;;;;;;;;;5071790;28;20028;-83
2022/05/08 12:18:25;;;;;;;2.57;2.07;;;;;;;;;;5069956;28;20304;-83
2022/05/08 12:20:52;;;;;;;6.63;2.17;;;;;;;;;;5071226;28;20019;-84
2022/05/08 12:23:17;;;;;;;2.72;1.92;;;;;;;;;;5071403;28;20025;-84
2022/05/08 12:25:45;;;;;;;6.05;2.30;;;;;;;;;;5071162;28;20028;-84
2022/05/08 12:28:12;;;;;;;2.70;2.00;;;;;;;;;;5071241;28;20020;-85
2022/05/08 12:30:38;;;;;;;7.20;2.45;;;;;;;;;;5071077;28;20028;-84
2022/05/08 12:33:03;;;;;;;2.25;1.75;;;;;;;;;;5070995;28;20013;-86
2022/05/08 12:35:29;;;;;;;2.97;2.13;;;;;;;;;;5069684;28;20140;-82
2022/05/08 12:37:54;;;;;;;3.40;2.13;;;;;;;;;;5070757;28;20620;-86
2022/05/08 12:40:19;;;;;;;4.13;1.95;;;;;;;;;;5070905;28;20103;-82
2022/05/08 12:42:45;;;;;;;3.88;2.20;;;;;;;;;;5070731;28;20020;-83
2022/05/08 12:45:11;;;;;;;2.45;1.90;;;;;;;;;;5070839;28;20028;-82
2022/05/08 12:47:36;;;;;;;8.55;2.38;;;;;;;;;;5069496;28;20052;-85
2022/05/08 12:50:02;;;;;;;4.78;1.80;;;;;;;;;;5069495;28;20498;-84
2022/05/08 12:52:27;;;;;;;3.97;2.10;;;;;;;;;;5070508;28;20490;-85
2022/05/08 12:54:53;;;;;;;4.20;2.30;;;;;;;;;;5070551;28;20023;-84
2022/05/08 13:00:03;;;;;;;2.92;1.92;;;;;;;;;;5069716;28;20079;-82
2022/05/08 13:02:29;;;;;;;4.38;2.33;;;;;;;;;;5070339;28;20025;-84
2022/05/08 13:04:55;;;;;;;2.47;2.05;;;;;;;;;;5070404;28;20027;-87
2022/05/08 13:07:20;;;;;;;4.68;1.90;;;;;;;;;;5070325;28;20040;-82
2022/05/08 13:09:46;;;;;;;5.00;2.30;;;;;;;;;;5068930;28;20398;-84
2022/05/08 13:12:12;;;;;;;3.97;2.10;;;;;;;;;;5070197;28;20043;-86
2022/05/08 13:14:38;;;;;;;3.55;1.95;;;;;;;;;;5070153;28;20104;-86
2022/05/08 13:17:04;;;;;;;5.53;1.98;;;;;;;;;;5069895;28;20116;-83
2022/05/08 13:19:33;;;;;;;5.05;2.40;;;;;;;;;;5070143;28;20023;-85
2022/05/08 13:21:58;;;;;;;3.40;2.20;;;;;;;;;;5070025;28;20012;-84
2022/05/08 13:24:24;;;;;;;1.83;1.73;;;;;;;;;;5070032;28;20016;-83
2022/05/08 13:26:51;;;;;;;5.32;2.70;;;;;;;;;;5068593;28;20500;-81
2022/05/08 13:29:16;;;;;;;7.10;2.13;;;;;;;;;;5070068;28;20498;-84
2022/05/08 13:31:42;;;;;;;4.45;2.58;;;;;;;;;;5069791;28;20025;-84
2022/05/08 13:34:08;;;;;;;4.00;2.40;;;;;;;;;;5069760;28;20097;-85
2022/05/08 13:36:33;;;;;;;2.67;2.47;;;;;;;;;;5069677;28;20497;-83
2022/05/08 13:38:59;;;;;;;2.58;2.10;;;;;;;;;;5069733;28;20100;-83
2022/05/08 13:41:24;;;;;;;5.78;2.42;;;;;;;;;;5068328;28;20510;-84
2022/05/08 13:43:50;;;;;;;3.15;2.28;;;;;;;;;;5069625;28;20012;-87
2022/05/08 13:46:15;;;;;;;2.55;2.22;;;;;;;;;;5068285;28;20407;-84
2022/05/08 13:48:42;;;;;;;4.15;2.35;;;;;;;;;;5069622;28;20024;-85
2022/05/08 13:51:08;;;;;;;5.82;2.65;;;;;;;;;;5069779;28;20100;-87
2022/05/08 13:53:33;;;;;;;3.22;2.30;;;;;;;;;;5069365;28;20095;-86
2022/05/08 13:56:02;;;;;;;3.28;2.28;;;;;;;;;;5069514;28;20032;-84
2022/05/08 13:58:27;;;;;;;2.60;2.38;;;;;;;;;;5069215;28;20112;-86
2022/05/08 14:00:53;;;;;;;4.03;2.30;;;;;;;;;;5069526;28;20116;-88
2022/05/08 14:03:21;;;;;;;3.50;2.53;;;;;;;;;;5069367;28;20402;-85
2022/05/08 14:05:48;;;;;;;4.22;2.15;;;;;;;;;;5069384;28;20029;-83
2022/05/08 14:08:14;;;;;;;9.93;2.30;;;;;;;;;;5068014;28;20024;-82
2022/05/08 14:10:40;;;;;;;3.45;2.60;;;;;;;;;;5068932;28;20013;-83
2022/05/08 14:13:05;;;;;;;3.33;2.10;;;;;;;;;;5069320;28;20104;-84
2022/05/08 14:15:31;;;;;;;7.10;2.53;;;;;;;;;;5069130;28;20386;-85
2022/05/08 14:17:57;;;;;;;2.90;2.40;;;;;;;;;;5069567;28;20024;-85
2022/05/08 14:20:22;;;;;;;5.50;2.53;;;;;;;;;;5069202;28;20024;-82
2022/05/08 14:22:47;;;;;;;2.53;2.33;;;;;;;;;;5069050;28;20031;-83
2022/05/08 14:25:14;;;;;;;5.43;2.55;;;;;;;;;;5069109;28;20027;-85
2022/05/08 14:27:39;;;;;;;5.85;2.40;;;;;;;;;;5069094;28;20021;-82
2022/05/08 14:30:08;;;;;;;4.22;2.28;;;;;;;;;;5069076;28;20027;-83
2022/05/08 14:38:02;;;;;;;4.20;2.30;;;;;;;;;;5068987;28;20123;-84
2022/05/08 14:40:29;;;;;;;4.68;2.15;;;;;;;;;;5068952;28;20099;-83
2022/05/08 14:42:54;;;;;;;5.68;2.53;;;;;;;;;;5068985;28;20020;-83
2022/05/08 14:45:20;;;;;;;5.57;2.35;;;;;;;;;;5069058;28;20103;-84
2022/05/08 14:47:45;;;;;;;2.58;2.30;;;;;;;;;;5069057;28;20036;-82
2022/05/08 14:50:11;;;;;;;5.35;2.20;;;;;;;;;;5067660;28;20036;-84
2022/05/08 14:52:36;;;;;;;5.88;2.88;;;;;;;;;;5069012;28;20783;-83
2022/05/08 14:55:02;;;;;;;6.00;2.50;;;;;;;;;;5071720;28;20537;-82
2022/05/08 14:57:27;;;;;;;5.30;2.83;;;;;;;;;;5068637;28;20416;-84
2022/05/08 14:59:52;;;;;;;5.20;2.65;;;;;;;;;;5068933;28;20044;-84
2022/05/08 15:02:18;;;;;;;4.45;2.20;;;;;;;;;;5067886;28;20429;-82
2022/05/08 15:04:45;;;;;;;3.35;2.22;;;;;;;;;;5067391;28;20062;-83
2022/05/08 15:07:11;;;;;;;5.50;2.17;;;;;;;;;;5068864;28;20055;-81
2022/05/08 15:09:36;;;;;;;7.57;2.47;;;;;;;;;;5071630;28;20471;-81
2022/05/08 15:12:02;;;;;;;72.95;5.50;;;;;;;;;;5070037;28;20036;-82
2022/05/08 15:14:27;;;;;;;6.45;2.15;;;;;;;;;;5067889;28;20020;-83
2022/05/08 15:16:53;;;;;;;5.18;2.47;;;;;;;;;;5067517;28;20041;-81
2022/05/08 15:19:18;;;;;;;2.25;1.80;;;;;;;;;;5069320;28;20020;-86
2022/05/08 15:21:43;;;;;;;3.47;2.72;;;;;;;;;;5071370;28;20077;-85
2022/05/08 15:24:09;;;;;;;2.38;2.00;;;;;;;;;;5074276;28;20043;-88
2022/05/08 15:26:34;;;;;;;3.15;2.28;;;;;;;;;;5075009;28;20029;-88
2022/05/08 15:29:00;;;;;;;3.20;2.47;;;;;;;;;;5073418;28;20399;-86
2022/05/08 15:31:26;;;;;;;6.22;2.47;;;;;;;;;;5073958;28;20479;-86
2022/05/08 15:33:51;;;;;;;3.15;2.25;;;;;;;;;;5073084;28;20025;-84
2022/05/08 15:36:17;;;;;;;4.28;2.47;;;;;;;;;;5072304;28;20043;-84
2022/05/08 15:38:42;;;;;;;2.67;1.90;;;;;;;;;;5077873;28;20483;-82
2022/05/08 15:41:08;;;;;;;6.07;2.15;;;;;;;;;;5073196;28;20439;-82
2022/05/08 15:43:33;;;;;;;3.90;2.53;;;;;;;;;;5072056;28;20479;-81
2022/05/08 15:45:59;;;;;;;3.20;2.30;;;;;;;;;;5070696;28;20410;-82
2022/05/08 15:48:25;;;;;;;3.75;2.05;;;;;;;;;;5070530;28;20024;-81
2022/05/08 15:50:55;;;;;;;3.22;2.08;;;;;;;;;;5071881;28;20027;-83
2022/05/08 15:53:20;;;;;;;;;;;;;;;;;;5072229;28;20013;-83
2022/05/08 15:55:46;;;;;;;3.50;1.93;;;;;;;;;;5071778;28;19942;-82
2022/05/08 15:58:11;;;;;;;8.85;2.20;;;;;;;;;;5071527;28;20378;-81
2022/05/08 16:00:37;;;;;;;2.42;1.80;;;;;;;;;;5070275;28;20031;-83
2022/05/08 16:03:05;;;;;;;4.25;1.70;;;;;;;;;;5071806;28;20051;-82
2022/05/08 16:05:31;;;;;;;5.15;1.95;;;;;;;;;;5071531;28;20024;-80
2022/05/08 16:07:59;;;;;;;3.38;2.40;;;;;;;;;;5070265;28;20020;-81
2022/05/08 16:10:24;;;;;;;2.55;1.83;;;;;;;;;;5071695;28;20066;-81
2022/05/08 16:23:45;;;;;;;4.57;1.95;;;;;;;;;;5070477;28;20063;-82
2022/05/08 16:26:11;;;;;;;2.17;1.85;;;;;;;;;;5069895;28;20495;-81
2022/05/08 16:28:36;;;;;;;1.80;1.70;;;;;;;;;;5071199;28;20074;-82
2022/05/08 16:31:03;;;;;;;3.05;1.80;;;;;;;;;;5071215;28;20029;-81
2022/05/08 16:33:28;;;;;;;3.70;1.90;;;;;;;;;;5070906;28;20035;-82
2022/05/08 16:35:56;;;;;;;4.40;1.65;;;;;;;;;;5069572;28;20025;-82
2022/05/08 16:38:22;;;;;;;1.55;1.45;;;;;;;;;;5070791;28;20099;-81
2022/05/08 16:40:47;;;;;;;4.45;1.83;;;;;;;;;;5052831;28;20123;-82
2022/05/08 16:43:13;;;;;;;8.20;1.73;;;;;;;;;;5070816;28;20672;-82
2022/05/08 16:45:38;;;;;;;2.80;1.90;;;;;;;;;;5070862;28;20021;-82
2022/05/08 16:48:04;;;;;;;5.60;1.85;;;;;;;;;;5070781;28;20028;-82
2022/05/08 16:50:29;;;;;;;5.07;1.88;;;;;;;;;;5070587;28;20039;-82
2022/05/08 16:52:56;;;;;;;2.03;1.83;;;;;;;;;;5052632;28;20020;-83
2022/05/08 16:55:22;;;;;;;2.15;1.77;;;;;;;;;;5070531;28;20024;-82
2022/05/08 16:57:47;;;;;;;2.40;1.77;;;;;;;;;;5070379;28;20083;-82
2022/05/08 17:00:14;;;;;;;2.50;1.55;;;;;;;;;;5070574;28;20017;-82
2022/05/08 17:02:39;;;;;;;5.40;1.77;;;;;;;;;;5070466;28;20479;-82
2022/05/08 17:05:05;;;;;;;2.28;1.77;;;;;;;;;;5070377;28;20021;-82
2022/05/08 17:07:30;;;;;;;2.13;1.90;;;;;;;;;;5070306;28;20028;-82
2022/05/08 17:09:56;;;;;;;6.15;1.98;;;;;;;;;;5068883;28;20025;-82
2022/05/08 17:12:23;;;;;;;3.05;1.60;;;;;;;;;;5069069;28;20111;-82
2022/05/08 17:14:49;;;;;;;2.00;1.80;;;;;;;;;;5070221;28;20099;-82
2022/05/08 17:17:14;;;;;;;5.13;1.55;;;;;;;;;;5070178;28;20530;-81
2022/05/08 17:19:40;;;;;;;1.83;1.67;;;;;;;;;;5070190;28;20022;-82
2022/05/08 17:22:05;;;;;;;2.53;1.85;;;;;;;;;;5070039;28;20028;-82
2022/05/08 17:24:31;;;;;;;1.80;1.50;;;;;;;;;;5069957;28;20013;-82
2022/05/08 17:29:40;;;;;;;2.10;1.90;;;;;;;;;;5070230;28;20464;-82
2022/05/08 17:32:07;;;;;;;1.73;1.63;;;;;;;;;;5051935;28;20104;-82
2022/05/08 17:34:32;;;;;;;3.70;2.00;;;;;;;;;;5069806;28;20029;-82
2022/05/08 17:36:58;;;;;;;4.43;1.98;;;;;;;;;;5069676;28;20063;-82
2022/05/08 17:39:23;;;;;;;1.92;1.83;;;;;;;;;;5069628;28;20078;-82
2022/05/08 17:41:49;;;;;;;2.13;1.52;;;;;;;;;;5069798;28;20020;-82
2022/05/08 17:44:18;;;;;;;2.67;1.80;;;;;;;;;;5069565;28;20582;-82
2022/05/08 17:46:43;;;;;;;2.28;1.83;;;;;;;;;;5069088;28;20024;-82
2022/05/08 17:49:08;;;;;;;2.30;2.10;;;;;;;;;;5069521;28;20012;-81
2022/05/08 17:51:35;;;;;;;2.55;2.00;;;;;;;;;;5068176;28;20031;-82
2022/05/08 17:54:00;;;;;;;6.65;2.22;;;;;;;;;;5069550;28;20015;-82
2022/05/08 17:56:25;;;;;;;2.00;1.80;;;;;;;;;;5069164;28;20024;-81
2022/05/08 17:58:51;;;;;;;3.38;2.20;;;;;;;;;;5068153;28;20423;-81
2022/05/08 18:01:16;;;;;;;3.50;1.95;;;;;;;;;;5068162;28;20815;-82
2022/05/08 18:06:26;;;;;;;5.43;3.20;;;;;;;;;;5070297;28;20043;-82
2022/05/08 18:08:51;;;;;;;4.85;3.80;;;;;;;;;;5071643;28;20024;-82
2022/05/08 18:11:17;;;;;;;3.13;2.53;;;;;;;;;;5073384;28;20095;-82
2022/05/08 18:13:42;;;;;;;3.90;2.35;;;;;;;;;;5071185;28;20032;-82
2022/05/08 18:16:09;;;;;;;3.50;2.40;;;;;;;;;;5068617;28;20078;-82
2022/05/08 18:18:35;;;;;;;3.90;2.33;;;;;;;;;;5067814;28;20095;-81
2022/05/08 18:21:00;;;;;;;2.30;1.95;;;;;;;;;;5067826;28;20036;-81
2022/05/08 18:23:26;;;;;;;4.57;2.30;;;;;;;;;;5069178;28;20479;-81
2022/05/08 18:25:52;;;;;;;4.32;2.20;;;;;;;;;;5073155;28;20024;-81
2022/05/08 18:28:18;;;;;;;2.40;2.20;;;;;;;;;;5073479;28;20024;-83
2022/05/08 18:30:43;;;;;;;3.45;2.55;;;;;;;;;;5069036;28;20078;-82
2022/05/08 18:33:09;;;;;;;3.35;2.38;;;;;;;;;;5067620;28;20009;-81
2022/05/08 18:35:36;;;;;;;3.60;2.13;;;;;;;;;;5069022;28;20028;-82
2022/05/08 18:38:02;;;;;;;2.67;2.47;;;;;;;;;;5068791;28;20414;-82
2022/05/08 18:40:27;;;;;;;2.40;2.20;;;;;;;;;;5068905;28;20025;-82
2022/05/08 18:42:55;;;;;;;4.88;2.00;;;;;;;;;;5067638;28;20453;-81
2022/05/08 18:45:21;;;;;;;3.85;2.40;;;;;;;;;;5068737;28;20021;-80
2022/05/08 18:47:47;;;;;;;7.20;2.58;;;;;;;;;;5068861;28;20024;-81
2022/05/08 18:50:13;;;;;;;2.80;2.35;;;;;;;;;;5068846;28;20074;-81
2022/05/08 18:52:38;;;;;;;3.35;2.40;;;;;;;;;;5068934;28;20510;-81
2022/05/08 18:55:04;;;;;;;4.25;2.30;;;;;;;;;;5068781;28;20020;-82
2022/05/08 18:57:30;;;;;;;2.38;2.17;;;;;;;;;;5068569;28;20417;-82
2022/05/08 18:59:58;;;;;;;2.80;2.28;;;;;;;;;;5072712;28;20123;-81
2022/05/08 19:02:23;;;;;;;2.53;2.10;;;;;;;;;;5072630;28;20026;-81
2022/05/08 19:04:49;;;;;;;10.27;3.20;;;;;;;;;;5072842;28;20099;-82
2022/05/08 19:07:15;;;;;;;2.92;2.55;;;;;;;;;;5072597;28;20031;-82
2022/05/08 19:09:41;;;;;;;2.92;2.63;;;;;;;;;;5072631;28;20311;-82
2022/05/08 19:12:06;;;;;;;3.65;2.53;;;;;;;;;;5072527;28;20458;-82
2022/05/08 19:14:32;;;;;;;5.63;2.85;;;;;;;;;;5072415;28;20013;-81
2022/05/08 19:16:57;;;;;;;3.05;2.25;;;;;;;;;;5072332;28;20032;-81
2022/05/08 19:19:25;;;;;;;2.58;2.38;;;;;;;;;;5072476;28;20161;-82
2022/05/08 19:21:51;;;;;;;3.47;2.67;;;;;;;;;;5072429;28;20410;-81
2022/05/08 19:24:16;;;;;;;8.75;2.70;;;;;;;;;;5071049;28;20027;-81
2022/05/08 19:26:42;;;;;;;3.53;2.83;;;;;;;;;;5072206;28;20094;-81
2022/05/08 19:29:07;;;;;;;3.15;2.72;;;;;;;;;;5070887;28;20177;-82
2022/05/08 19:39:44;;;;;;;3.15;2.85;;;;;;;;;;5072176;28;20043;-81
2022/05/08 19:42:10;;;;;;;3.97;2.90;;;;;;;;;;5072152;28;20478;-82
2022/05/08 19:44:35;;;;;;;5.30;3.42;;;;;;;;;;5072211;28;20090;-81
2022/05/08 19:47:14;;;;;;;10.45;2.72;;;;;;;;;;5070572;28;20013;-82
2022/05/08 19:49:40;;;;;;;3.33;3.03;;;;;;;;;;5071770;28;20016;-82
2022/05/08 19:52:06;;;;;;;5.25;2.85;;;;;;;;;;5071954;28;20476;-80
2022/05/08 19:54:32;;;;;;;7.38;2.60;;;;;;;;;;5071748;28;20530;-81
2022/05/08 19:56:58;;;;;;;3.35;3.05;;;;;;;;;;5075624;28;20134;-81
2022/05/08 19:59:24;;;;;;;7.53;3.33;;;;;;;;;;5071663;28;20502;-81
2022/05/08 20:01:49;;;;;;;6.63;3.70;;;;;;;;;;5071801;28;20032;-83
2022/05/08 20:04:14;;;;;;;4.53;3.40;;;;;;;;;;5071818;28;20021;-81
2022/05/08 20:06:40;;;;;;;5.90;2.92;;;;;;;;;;5071928;28;20089;-81
2022/05/08 20:09:05;;;;;;;3.15;2.80;;;;;;;;;;5071647;28;20020;-81
2022/05/08 20:11:31;;;;;;;3.85;3.30;;;;;;;;;;5072132;28;20024;-81
2022/05/08 20:13:56;;;;;;;8.30;3.28;;;;;;;;;;5072840;28;20099;-81
2022/05/08 20:16:21;;;;;;;4.05;3.10;;;;;;;;;;5071772;28;20036;-79
2022/05/08 20:18:47;;;;;;;5.45;3.20;;;;;;;;;;5071514;28;20119;-80
2022/05/08 20:23:56;;;;;;;6.97;3.30;;;;;;;;;;5071418;28;20576;-81
2022/05/08 20:26:22;;;;;;;4.07;3.00;;;;;;;;;;5071259;28;20052;-81
2022/05/08 20:28:47;;;;;;;5.80;3.30;;;;;;;;;;5071012;28;20063;-81
2022/05/08 20:31:13;;;;;;;3.22;2.72;;;;;;;;;;5069849;28;20029;-81
2022/05/08 20:33:39;;;;;;;3.58;3.25;;;;;;;;;;5071085;28;20055;-81
2022/05/08 20:36:05;;;;;;;3.97;3.25;;;;;;;;;;5069545;28;20520;-83
2022/05/08 20:38:30;;;;;;;7.32;3.28;;;;;;;;;;5071027;28;20074;-81
2022/05/08 20:40:56;;;;;;;7.45;3.28;;;;;;;;;;5070840;28;20027;-80
2022/05/08 20:43:21;;;;;;;5.45;3.50;;;;;;;;;;5070758;28;20012;-80
2022/05/08 20:45:47;;;;;;;3.90;3.22;;;;;;;;;;5070685;28;20020;-83
2022/05/08 20:48:12;;;;;;;5.00;3.67;;;;;;;;;;5070702;28;20048;-82
2022/05/08 20:50:38;;;;;;;4.45;3.67;;;;;;;;;;5070594;28;20052;-82
2022/05/08 20:53:04;;;;;;;5.93;3.10;;;;;;;;;;5070475;28;20088;-81
2022/05/08 20:55:30;;;;;;;3.28;2.92;;;;;;;;;;5069352;28;20552;-83
2022/05/08 20:57:56;;;;;;;4.90;3.58;;;;;;;;;;5070212;28;20049;-83
2022/05/08 21:00:22;;;;;;;3.72;3.33;;;;;;;;;;5070368;28;20020;-82
2022/05/08 21:02:47;;;;;;;6.15;3.47;;;;;;;;;;5069158;28;20033;-83
2022/05/08 21:07:57;;;;;;;6.38;3.70;;;;;;;;;;5069542;28;20097;-82
2022/05/08 21:10:23;;;;;;;4.22;3.67;;;;;;;;;;5070289;28;20025;-82
2022/05/08 21:12:50;;;;;;;3.58;3.20;;;;;;;;;;5070271;28;20562;-82
2022/05/08 21:15:16;;;;;;;6.20;3.65;;;;;;;;;;5070078;28;20023;-82
2022/05/08 21:17:42;;;;;;;3.83;3.47;;;;;;;;;;5068619;28;20438;-81
2022/05/08 21:20:07;;;;;;;4.63;3.22;;;;;;;;;;5069675;28;20103;-83
2022/05/08 21:22:33;;;;;;;7.72;3.85;;;;;;;;;;5069718;28;20017;-82
2022/05/08 21:24:58;;;;;;;4.43;3.85;;;;;;;;;;5070003;28;20407;-81
2022/05/08 21:27:23;;;;;;;6.78;4.20;;;;;;;;;;5069997;28;20501;-83
2022/05/08 21:29:49;;;;;;;12.02;4.13;;;;;;;;;;5068455;28;20035;-82
2022/05/08 21:32:14;;;;;;;4.55;3.15;;;;;;;;;;5069980;28;20030;-83
2022/05/08 21:34:39;;;;;;;5.07;3.58;;;;;;;;;;5069914;28;20004;-83
2022/05/08 21:37:05;;;;;;;5.22;3.83;;;;;;;;;;5069729;28;20043;-83
2022/05/08 21:39:30;;;;;;;4.10;3.35;;;;;;;;;;5069905;28;20085;-83
2022/05/08 21:41:56;;;;;;;4.63;3.53;;;;;;;;;;5069084;28;20025;-82
2022/05/08 21:44:21;;;;;;;4.03;3.60;;;;;;;;;;5069621;28;20024;-81
2022/05/08 21:46:46;;;;;;;5.30;4.25;;;;;;;;;;5051682;28;20024;-82
2022/05/08 21:49:15;;;;;;;4.00;3.63;;;;;;;;;;5069443;28;20030;-82
2022/05/08 21:51:40;;;;;;;5.60;4.05;;;;;;;;;;5069488;28;20009;-79
2022/05/08 21:54:06;;;;;;;6.47;4.53;;;;;;;;;;5068102;28;20020;-83
2022/05/08 21:56:31;;;;;;;5.18;3.88;;;;;;;;;;5067996;28;20117;-82
2022/05/08 21:58:57;;;;;;;7.68;3.97;;;;;;;;;;5067923;28;20063;-82
2022/05/08 22:01:22;;;;;;;11.00;3.88;;;;;;;;;;5069427;28;20489;-82
2022/05/08 22:03:49;;;;;;;4.38;3.88;;;;;;;;;;5068052;28;20021;-82
2022/05/08 22:06:14;;;;;;;5.40;3.70;;;;;;;;;;5068036;28;20032;-81
2022/05/08 22:08:40;;;;;;;6.20;4.63;;;;;;;;;;5067862;28;20467;-81
2022/05/08 22:11:05;;;;;;;4.65;3.88;;;;;;;;;;5069209;28;20471;-82
2022/05/08 22:13:31;;;;;;;4.35;3.45;;;;;;;;;;5067947;28;20028;-82
2022/05/08 22:15:56;;;;;;;4.00;3.67;;;;;;;;;;5069045;28;20463;-81
2022/05/08 22:21:05;;;;;;;6.20;4.15;;;;;;;;;;5069161;28;20030;-82
2022/05/08 22:23:31;;;;;;;6.50;4.07;;;;;;;;;;5067745;28;20119;-81
2022/05/08 22:25:56;;;;;;;7.97;4.15;;;;;;;;;;5069063;28;20012;-82
2022/05/08 22:28:21;;;;;;;4.07;3.53;;;;;;;;;;5069103;28;20028;-81
2022/05/08 22:30:49;;;;;;;4.80;4.30;;;;;;;;;;5069207;28;20017;-82
2022/05/08 22:33:14;;;;;;;4.85;3.78;;;;;;;;;;5068754;28;20107;-82
2022/05/08 22:35:41;;;;;;;6.13;3.95;;;;;;;;;;5068976;28;20111;-83
2022/05/08 22:38:06;;;;;;;7.05;4.30;;;;;;;;;;5068868;28;20039;-83
2022/05/08 22:40:32;;;;;;;5.95;4.03;;;;;;;;;;5068882;28;20414;-81
2022/05/08 22:42:57;;;;;;;4.78;4.18;;;;;;;;;;5068942;28;20032;-82
2022/05/08 22:45:23;;;;;;;8.23;4.57;;;;;;;;;;5067514;28;20028;-81
2022/05/08 22:47:48;;;;;;;3.97;3.60;;;;;;;;;;5068837;28;20088;-83
2022/05/08 22:50:13;;;;;;;7.43;3.97;;;;;;;;;;5068832;28;20035;-82
2022/05/08 22:52:39;;;;;;;7.20;3.83;;;;;;;;;;5068820;28;20024;-82
2022/05/08 22:55:04;;;;;;;4.30;3.67;;;;;;;;;;5068806;28;20025;-83
2022/05/08 22:57:30;;;;;;;6.15;4.55;;;;;;;;;;5068524;28;20076;-83
2022/05/08 22:59:55;;;;;;;7.22;3.72;;;;;;;;;;5068871;28;20113;-82
2022/05/08 23:02:21;;;;;;;5.03;3.53;;;;;;;;;;5067291;28;20407;-82
2022/05/08 23:04:46;;;;;;;4.10;3.80;;;;;;;;;;5068640;28;20024;-82
2022/05/08 23:07:11;;;;;;;5.00;4.03;;;;;;;;;;5067382;28;20064;-82
2022/05/08 23:09:37;;;;;;;6.50;3.90;;;;;;;;;;5050609;28;20032;-82
2022/05/08 23:12:02;;;;;;;5.25;3.95;;;;;;;;;;5050593;28;20487;-82
2022/05/08 23:17:27;;;;;;;5.95;3.70;;;;;;;;;;5068904;28;20098;-82
2022/05/08 23:19:52;;;;;;;6.03;3.78;;;;;;;;;;5068478;28;20471;-82
2022/05/08 23:22:18;;;;;;;4.28;3.35;;;;;;;;;;5050617;28;20029;-82
2022/05/08 23:24:43;;;;;;;4.90;3.90;;;;;;;;;;5068551;28;20493;-81
2022/05/08 23:27:08;;;;;;;8.02;3.83;;;;;;;;;;5050415;28;20119;-83
2022/05/08 23:29:34;;;;;;;4.53;3.70;;;;;;;;;;5067319;28;20390;-82
2022/05/08 23:31:59;;;;;;;4.32;3.90;;;;;;;;;;5068497;28;20020;-82
2022/05/08 23:34:25;;;;;;;5.57;4.35;;;;;;;;;;5067210;28;20017;-82
2022/05/08 23:36:50;;;;;;;3.50;3.20;;;;;;;;;;5068353;28;20047;-82
2022/05/08 23:39:15;;;;;;;6.95;3.55;;;;;;;;;;5066982;28;20029;-82
2022/05/08 23:41:41;;;;;;;4.07;3.72;;;;;;;;;;5067129;28;20017;-82
2022/05/08 23:44:06;;;;;;;4.10;3.63;;;;;;;;;;5067964;28;20059;-82
2022/05/08 23:46:32;;;;;;;4.70;3.70;;;;;;;;;;5072116;28;20031;-81
2022/05/08 23:48:57;;;;;;;7.07;3.35;;;;;;;;;;5053916;28;20099;-82
2022/05/08 23:51:22;;;;;;;4.75;3.97;;;;;;;;;;5053985;28;20062;-82
2022/05/08 23:53:48;;;;;;;6.38;3.95;;;;;;;;;;5070614;28;20479;-82
2022/05/08 23:56:13;;;;;;;6.22;3.78;;;;;;;;;;5070552;28;20482;-82
2022/05/08 23:58:39;;;;;;;6.35;3.70;;;;;;;;;;5070366;28;20121;-82
